sensor_id;sensor_type;location;lat;lon;timestamp;P1;durP1;ratioP1;P2;durP2;ratioP2
49824;SDS011;35714;55.708;37.478;2023-04-06T00:00:09;5.53;;;2.65;;
49824;SDS011;35714;55.708;37.478;2023-04-06T00:02:35;5.85;;;3.10;;
49824;SDS011;35714;55.708;37.478;2023-04-06T00:05:01;4.57;;;2.70;;
49824;SDS011;35714;55.708;37.478;2023-04-06T00:07:28;6.15;;;2.65;;
49824;SDS011;35714;55.708;37.478;2023-04-06T00:09:54;5.88;;;2.92;;
49824;SDS011;35714;55.708;37.478;2023-04-06T00:12:20;5.15;;;2.92;;
49824;SDS011;35714;55.708;37.478;2023-04-06T00:14:46;5.47;;;2.67;;
49824;SDS011;35714;55.708;37.478;2023-04-06T00:17:11;5.13;;;2.90;;
49824;SDS011;35714;55.708;37.478;2023-04-06T00:19:37;6.78;;;2.58;;
49824;SDS011;35714;55.708;37.478;2023-04-06T00:22:02;5.25;;;2.50;;
49824;SDS011;35714;55.708;37.478;2023-04-06T00:24:28;6.93;;;2.78;;
49824;SDS011;35714;55.708;37.478;2023-04-06T00:26:54;6.10;;;2.67;;
49824;SDS011;35714;55.708;37.478;2023-04-06T00:29:20;6.82;;;2.85;;
49824;SDS011;35714;55.708;37.478;2023-04-06T00:31:45;4.55;;;2.35;;
49824;SDS011;35714;55.708;37.478;2023-04-06T00:34:11;5.55;;;2.78;;
49824;SDS011;35714;55.708;37.478;2023-04-06T00:36:37;5.00;;;2.50;;
49824;SDS011;35714;55.708;37.478;2023-04-06T00:39:02;6.80;;;2.78;;
49824;SDS011;35714;55.708;37.478;2023-04-06T00:41:28;6.60;;;2.90;;
49824;SDS011;35714;55.708;37.478;2023-04-06T00:43:53;4.90;;;2.72;;
49824;SDS011;35714;55.708;37.478;2023-04-06T00:46:20;5.55;;;2.85;;
49824;SDS011;35714;55.708;37.478;2023-04-06T00:48:45;5.60;;;2.75;;
49824;SDS011;35714;55.708;37.478;2023-04-06T00:51:11;6.88;;;3.35;;
49824;SDS011;35714;55.708;37.478;2023-04-06T00:53:37;6.53;;;3.22;;
49824;SDS011;35714;55.708;37.478;2023-04-06T00:56:02;6.20;;;2.80;;
49824;SDS011;35714;55.708;37.478;2023-04-06T00:58:37;6.97;;;3.20;;
49824;SDS011;35714;55.708;37.478;2023-04-06T01:01:06;5.97;;;3.05;;
49824;SDS011;35714;55.708;37.478;2023-04-06T01:03:33;6.30;;;3.28;;
49824;SDS011;35714;55.708;37.478;2023-04-06T01:05:59;6.32;;;3.30;;
49824;SDS011;35714;55.708;37.478;2023-04-06T01:08:32;6.43;;;3.08;;
49824;SDS011;35714;55.708;37.478;2023-04-06T01:11:12;9.00;;;3.20;;
49824;SDS011;35714;55.708;37.478;2023-04-06T01:13:37;5.35;;;3.00;;
49824;SDS011;35714;55.708;37.478;2023-04-06T01:16:06;7.07;;;3.22;;
49824;SDS011;35714;55.708;37.478;2023-04-06T01:18:46;5.80;;;3.00;;
49824;SDS011;35714;55.708;37.478;2023-04-06T01:21:18;6.93;;;3.70;;
49824;SDS011;35714;55.708;37.478;2023-04-06T01:24:00;5.43;;;2.92;;
49824;SDS011;35714;55.708;37.478;2023-04-06T01:26:34;6.10;;;3.20;;
49824;SDS011;35714;55.708;37.478;2023-04-06T01:29:05;6.60;;;3.42;;
49824;SDS011;35714;55.708;37.478;2023-04-06T01:31:30;8.07;;;2.95;;
49824;SDS011;35714;55.708;37.478;2023-04-06T01:33:56;7.45;;;3.35;;
49824;SDS011;35714;55.708;37.478;2023-04-06T01:36:24;6.18;;;2.92;;
49824;SDS011;35714;55.708;37.478;2023-04-06T01:39:01;5.72;;;3.05;;
49824;SDS011;35714;55.708;37.478;2023-04-06T01:41:33;7.32;;;3.60;;
49824;SDS011;35714;55.708;37.478;2023-04-06T01:43:59;8.63;;;3.58;;
49824;SDS011;35714;55.708;37.478;2023-04-06T01:46:29;5.72;;;3.40;;
49824;SDS011;35714;55.708;37.478;2023-04-06T01:48:55;5.85;;;3.08;;
49824;SDS011;35714;55.708;37.478;2023-04-06T01:51:30;5.88;;;3.40;;
49824;SDS011;35714;55.708;37.478;2023-04-06T01:53:59;6.53;;;3.50;;
49824;SDS011;35714;55.708;37.478;2023-04-06T01:56:44;7.00;;;3.65;;
49824;SDS011;35714;55.708;37.478;2023-04-06T01:59:24;7.60;;;3.50;;
49824;SDS011;35714;55.708;37.478;2023-04-06T02:01:50;5.20;;;3.20;;
49824;SDS011;35714;55.708;37.478;2023-04-06T02:04:16;7.00;;;3.65;;
49824;SDS011;35714;55.708;37.478;2023-04-06T02:06:44;5.75;;;3.35;;
49824;SDS011;35714;55.708;37.478;2023-04-06T02:09:12;7.15;;;3.53;;
49824;SDS011;35714;55.708;37.478;2023-04-06T02:11:38;6.57;;;3.22;;
49824;SDS011;35714;55.708;37.478;2023-04-06T02:14:04;8.15;;;3.55;;
49824;SDS011;35714;55.708;37.478;2023-04-06T02:16:33;7.15;;;3.67;;
49824;SDS011;35714;55.708;37.478;2023-04-06T02:18:59;7.47;;;3.53;;
49824;SDS011;35714;55.708;37.478;2023-04-06T02:21:25;8.82;;;3.80;;
49824;SDS011;35714;55.708;37.478;2023-04-06T02:23:50;7.22;;;3.53;;
49824;SDS011;35714;55.708;37.478;2023-04-06T02:26:16;8.95;;;3.67;;
49824;SDS011;35714;55.708;37.478;2023-04-06T02:28:42;6.10;;;3.10;;
49824;SDS011;35714;55.708;37.478;2023-04-06T02:31:08;5.55;;;3.13;;
49824;SDS011;35714;55.708;37.478;2023-04-06T02:33:34;6.00;;;3.22;;
49824;SDS011;35714;55.708;37.478;2023-04-06T02:36:00;6.80;;;3.47;;
49824;SDS011;35714;55.708;37.478;2023-04-06T02:38:26;5.43;;;3.03;;
49824;SDS011;35714;55.708;37.478;2023-04-06T02:40:51;5.38;;;3.20;;
49824;SDS011;35714;55.708;37.478;2023-04-06T02:43:20;11.40;;;4.25;;
49824;SDS011;35714;55.708;37.478;2023-04-06T02:45:48;6.00;;;3.42;;
49824;SDS011;35714;55.708;37.478;2023-04-06T02:48:14;6.97;;;3.50;;
49824;SDS011;35714;55.708;37.478;2023-04-06T02:50:40;5.63;;;3.45;;
49824;SDS011;35714;55.708;37.478;2023-04-06T02:53:07;5.35;;;2.80;;
49824;SDS011;35714;55.708;37.478;2023-04-06T02:55:34;6.05;;;3.38;;
49824;SDS011;35714;55.708;37.478;2023-04-06T02:57:59;5.28;;;3.08;;
49824;SDS011;35714;55.708;37.478;2023-04-06T03:00:31;6.47;;;4.25;;
49824;SDS011;35714;55.708;37.478;2023-04-06T03:02:57;4.97;;;3.00;;
49824;SDS011;35714;55.708;37.478;2023-04-06T03:05:24;5.70;;;3.47;;
49824;SDS011;35714;55.708;37.478;2023-04-06T03:07:50;7.25;;;3.50;;
49824;SDS011;35714;55.708;37.478;2023-04-06T03:10:23;5.63;;;3.33;;
49824;SDS011;35714;55.708;37.478;2023-04-06T03:12:49;5.07;;;2.95;;
49824;SDS011;35714;55.708;37.478;2023-04-06T03:15:19;6.93;;;3.33;;
49824;SDS011;35714;55.708;37.478;2023-04-06T03:17:50;8.50;;;3.78;;
49824;SDS011;35714;55.708;37.478;2023-04-06T03:20:45;6.28;;;3.15;;
49824;SDS011;35714;55.708;37.478;2023-04-06T03:23:13;6.60;;;3.67;;
49824;SDS011;35714;55.708;37.478;2023-04-06T03:25:41;5.18;;;3.15;;
49824;SDS011;35714;55.708;37.478;2023-04-06T03:28:10;5.68;;;3.65;;
49824;SDS011;35714;55.708;37.478;2023-04-06T03:30:44;6.55;;;3.00;;
49824;SDS011;35714;55.708;37.478;2023-04-06T03:33:12;6.28;;;3.35;;
49824;SDS011;35714;55.708;37.478;2023-04-06T03:35:48;7.25;;;3.00;;
49824;SDS011;35714;55.708;37.478;2023-04-06T03:38:14;6.32;;;3.10;;
49824;SDS011;35714;55.708;37.478;2023-04-06T03:40:39;6.28;;;2.78;;
49824;SDS011;35714;55.708;37.478;2023-04-06T03:43:05;6.80;;;2.90;;
49824;SDS011;35714;55.708;37.478;2023-04-06T03:45:34;5.47;;;2.90;;
49824;SDS011;35714;55.708;37.478;2023-04-06T03:47:59;8.30;;;3.20;;
49824;SDS011;35714;55.708;37.478;2023-04-06T03:50:26;6.00;;;3.45;;
49824;SDS011;35714;55.708;37.478;2023-04-06T03:52:51;8.43;;;3.47;;
49824;SDS011;35714;55.708;37.478;2023-04-06T03:55:17;6.38;;;3.05;;
49824;SDS011;35714;55.708;37.478;2023-04-06T03:57:42;5.35;;;2.60;;
49824;SDS011;35714;55.708;37.478;2023-04-06T04:00:08;5.22;;;2.60;;
49824;SDS011;35714;55.708;37.478;2023-04-06T04:02:40;10.00;;;4.93;;
49824;SDS011;35714;55.708;37.478;2023-04-06T04:05:06;9.35;;;4.00;;
49824;SDS011;35714;55.708;37.478;2023-04-06T04:07:32;7.72;;;3.90;;
49824;SDS011;35714;55.708;37.478;2023-04-06T04:09:58;6.82;;;3.88;;
49824;SDS011;35714;55.708;37.478;2023-04-06T04:12:24;5.93;;;2.92;;
49824;SDS011;35714;55.708;37.478;2023-04-06T04:14:49;9.98;;;5.07;;
49824;SDS011;35714;55.708;37.478;2023-04-06T04:17:16;6.30;;;3.72;;
49824;SDS011;35714;55.708;37.478;2023-04-06T04:19:41;7.15;;;3.75;;
49824;SDS011;35714;55.708;37.478;2023-04-06T04:22:08;5.53;;;2.72;;
49824;SDS011;35714;55.708;37.478;2023-04-06T04:24:37;8.65;;;2.97;;
49824;SDS011;35714;55.708;37.478;2023-04-06T04:27:03;5.50;;;3.17;;
49824;SDS011;35714;55.708;37.478;2023-04-06T04:29:31;7.63;;;3.58;;
49824;SDS011;35714;55.708;37.478;2023-04-06T04:32:01;5.75;;;2.90;;
49824;SDS011;35714;55.708;37.478;2023-04-06T04:34:29;6.18;;;3.30;;
49824;SDS011;35714;55.708;37.478;2023-04-06T04:36:56;7.00;;;3.17;;
49824;SDS011;35714;55.708;37.478;2023-04-06T04:39:33;7.10;;;3.38;;
49824;SDS011;35714;55.708;37.478;2023-04-06T04:42:05;5.13;;;2.67;;
49824;SDS011;35714;55.708;37.478;2023-04-06T04:44:33;5.70;;;2.60;;
49824;SDS011;35714;55.708;37.478;2023-04-06T04:47:00;4.60;;;2.35;;
49824;SDS011;35714;55.708;37.478;2023-04-06T04:49:36;7.10;;;2.53;;
49824;SDS011;35714;55.708;37.478;2023-04-06T04:52:02;6.43;;;3.10;;
49824;SDS011;35714;55.708;37.478;2023-04-06T04:54:45;9.18;;;3.67;;
49824;SDS011;35714;55.708;37.478;2023-04-06T04:57:19;6.72;;;3.17;;
49824;SDS011;35714;55.708;37.478;2023-04-06T04:59:44;9.35;;;3.58;;
49824;SDS011;35714;55.708;37.478;2023-04-06T05:02:16;5.40;;;2.88;;
49824;SDS011;35714;55.708;37.478;2023-04-06T05:05:14;7.43;;;3.25;;
49824;SDS011;35714;55.708;37.478;2023-04-06T05:07:40;7.68;;;2.90;;
49824;SDS011;35714;55.708;37.478;2023-04-06T05:10:11;6.97;;;3.25;;
49824;SDS011;35714;55.708;37.478;2023-04-06T05:15:12;5.13;;;3.20;;
49824;SDS011;35714;55.708;37.478;2023-04-06T05:17:38;8.00;;;2.80;;
49824;SDS011;35714;55.708;37.478;2023-04-06T05:20:06;10.15;;;3.35;;
49824;SDS011;35714;55.708;37.478;2023-04-06T05:22:37;5.28;;;2.85;;
49824;SDS011;35714;55.708;37.478;2023-04-06T05:25:09;6.43;;;3.20;;
49824;SDS011;35714;55.708;37.478;2023-04-06T05:27:35;7.07;;;3.00;;
49824;SDS011;35714;55.708;37.478;2023-04-06T05:30:06;8.40;;;3.45;;
49824;SDS011;35714;55.708;37.478;2023-04-06T05:32:38;7.53;;;3.10;;
49824;SDS011;35714;55.708;37.478;2023-04-06T05:35:04;5.20;;;2.90;;
49824;SDS011;35714;55.708;37.478;2023-04-06T05:37:31;6.75;;;3.10;;
49824;SDS011;35714;55.708;37.478;2023-04-06T05:39:58;12.32;;;3.47;;
49824;SDS011;35714;55.708;37.478;2023-04-06T05:42:24;7.00;;;2.85;;
49824;SDS011;35714;55.708;37.478;2023-04-06T05:44:52;7.90;;;3.17;;
49824;SDS011;35714;55.708;37.478;2023-04-06T05:47:19;7.78;;;2.95;;
49824;SDS011;35714;55.708;37.478;2023-04-06T05:49:50;6.43;;;3.80;;
49824;SDS011;35714;55.708;37.478;2023-04-06T05:52:24;8.73;;;3.08;;
49824;SDS011;35714;55.708;37.478;2023-04-06T05:54:50;6.05;;;2.85;;
49824;SDS011;35714;55.708;37.478;2023-04-06T05:57:15;7.13;;;3.03;;
49824;SDS011;35714;55.708;37.478;2023-04-06T05:59:44;5.28;;;2.75;;
49824;SDS011;35714;55.708;37.478;2023-04-06T06:02:12;7.22;;;2.88;;
49824;SDS011;35714;55.708;37.478;2023-04-06T06:04:42;11.30;;;3.10;;
49824;SDS011;35714;55.708;37.478;2023-04-06T06:07:08;7.75;;;2.90;;
49824;SDS011;35714;55.708;37.478;2023-04-06T06:09:42;7.50;;;3.47;;
49824;SDS011;35714;55.708;37.478;2023-04-06T06:14:43;6.72;;;2.70;;
49824;SDS011;35714;55.708;37.478;2023-04-06T06:17:09;6.45;;;2.90;;
49824;SDS011;35714;55.708;37.478;2023-04-06T06:19:35;4.75;;;2.65;;
49824;SDS011;35714;55.708;37.478;2023-04-06T06:22:04;6.93;;;2.60;;
49824;SDS011;35714;55.708;37.478;2023-04-06T06:24:32;5.80;;;2.90;;
49824;SDS011;35714;55.708;37.478;2023-04-06T06:26:59;6.13;;;2.60;;
49824;SDS011;35714;55.708;37.478;2023-04-06T06:29:27;9.52;;;3.45;;
49824;SDS011;35714;55.708;37.478;2023-04-06T06:31:53;6.18;;;2.70;;
49824;SDS011;35714;55.708;37.478;2023-04-06T06:34:18;8.25;;;2.60;;
49824;SDS011;35714;55.708;37.478;2023-04-06T06:36:44;7.35;;;2.58;;
49824;SDS011;35714;55.708;37.478;2023-04-06T06:39:11;7.20;;;2.80;;
49824;SDS011;35714;55.708;37.478;2023-04-06T06:41:38;15.18;;;3.65;;
49824;SDS011;35714;55.708;37.478;2023-04-06T06:44:04;7.03;;;3.30;;
49824;SDS011;35714;55.708;37.478;2023-04-06T06:46:30;7.25;;;3.03;;
49824;SDS011;35714;55.708;37.478;2023-04-06T06:48:58;5.50;;;2.88;;
49824;SDS011;35714;55.708;37.478;2023-04-06T06:51:24;8.45;;;3.05;;
49824;SDS011;35714;55.708;37.478;2023-04-06T06:53:49;8.75;;;3.67;;
49824;SDS011;35714;55.708;37.478;2023-04-06T06:56:15;9.00;;;3.70;;
49824;SDS011;35714;55.708;37.478;2023-04-06T06:58:41;10.15;;;2.97;;
49824;SDS011;35714;55.708;37.478;2023-04-06T07:01:08;10.10;;;3.03;;
49824;SDS011;35714;55.708;37.478;2023-04-06T07:03:34;9.10;;;2.97;;
49824;SDS011;35714;55.708;37.478;2023-04-06T07:05:59;5.38;;;2.70;;
49824;SDS011;35714;55.708;37.478;2023-04-06T07:08:25;10.55;;;2.92;;
49824;SDS011;35714;55.708;37.478;2023-04-06T07:10:51;7.80;;;3.00;;
49824;SDS011;35714;55.708;37.478;2023-04-06T07:13:18;9.77;;;2.85;;
49824;SDS011;35714;55.708;37.478;2023-04-06T07:15:49;9.57;;;3.42;;
49824;SDS011;35714;55.708;37.478;2023-04-06T07:18:15;10.52;;;3.38;;
49824;SDS011;35714;55.708;37.478;2023-04-06T07:20:42;9.32;;;3.05;;
49824;SDS011;35714;55.708;37.478;2023-04-06T07:23:09;15.48;;;3.45;;
49824;SDS011;35714;55.708;37.478;2023-04-06T07:25:35;17.05;;;3.97;;
49824;SDS011;35714;55.708;37.478;2023-04-06T07:28:01;7.90;;;2.95;;
49824;SDS011;35714;55.708;37.478;2023-04-06T07:30:28;12.07;;;3.60;;
49824;SDS011;35714;55.708;37.478;2023-04-06T07:32:55;7.93;;;2.72;;
49824;SDS011;35714;55.708;37.478;2023-04-06T07:35:24;9.00;;;3.08;;
49824;SDS011;35714;55.708;37.478;2023-04-06T07:37:52;9.70;;;2.92;;
49824;SDS011;35714;55.708;37.478;2023-04-06T07:40:18;13.45;;;3.80;;
49824;SDS011;35714;55.708;37.478;2023-04-06T07:42:45;6.18;;;3.08;;
49824;SDS011;35714;55.708;37.478;2023-04-06T07:45:11;7.28;;;2.70;;
49824;SDS011;35714;55.708;37.478;2023-04-06T07:47:37;7.53;;;3.58;;
49824;SDS011;35714;55.708;37.478;2023-04-06T07:50:03;8.25;;;3.42;;
49824;SDS011;35714;55.708;37.478;2023-04-06T07:52:30;6.82;;;2.92;;
49824;SDS011;35714;55.708;37.478;2023-04-06T07:54:57;8.80;;;2.90;;
49824;SDS011;35714;55.708;37.478;2023-04-06T07:57:23;7.57;;;2.70;;
49824;SDS011;35714;55.708;37.478;2023-04-06T07:59:49;9.10;;;3.08;;
49824;SDS011;35714;55.708;37.478;2023-04-06T08:02:15;5.88;;;2.67;;
49824;SDS011;35714;55.708;37.478;2023-04-06T08:04:41;14.82;;;2.78;;
49824;SDS011;35714;55.708;37.478;2023-04-06T08:07:06;6.22;;;2.67;;
49824;SDS011;35714;55.708;37.478;2023-04-06T08:09:32;7.13;;;2.47;;
49824;SDS011;35714;55.708;37.478;2023-04-06T08:11:57;7.35;;;2.40;;
49824;SDS011;35714;55.708;37.478;2023-04-06T08:14:23;7.63;;;2.95;;
49824;SDS011;35714;55.708;37.478;2023-04-06T08:16:49;10.43;;;2.67;;
49824;SDS011;35714;55.708;37.478;2023-04-06T08:19:15;4.80;;;2.42;;
49824;SDS011;35714;55.708;37.478;2023-04-06T08:21:42;6.03;;;1.95;;
49824;SDS011;35714;55.708;37.478;2023-04-06T08:24:08;7.30;;;2.17;;
49824;SDS011;35714;55.708;37.478;2023-04-06T08:26:34;8.15;;;1.90;;
49824;SDS011;35714;55.708;37.478;2023-04-06T08:28:59;4.85;;;1.88;;
49824;SDS011;35714;55.708;37.478;2023-04-06T08:31:25;8.32;;;2.10;;
49824;SDS011;35714;55.708;37.478;2023-04-06T08:33:51;11.73;;;2.15;;
49824;SDS011;35714;55.708;37.478;2023-04-06T08:36:17;12.57;;;2.30;;
49824;SDS011;35714;55.708;37.478;2023-04-06T08:38:47;6.40;;;1.98;;
49824;SDS011;35714;55.708;37.478;2023-04-06T08:41:14;7.68;;;1.67;;
49824;SDS011;35714;55.708;37.478;2023-04-06T08:43:46;9.18;;;2.17;;
49824;SDS011;35714;55.708;37.478;2023-04-06T08:46:12;5.18;;;1.83;;
49824;SDS011;35714;55.708;37.478;2023-04-06T08:48:40;6.03;;;1.63;;
49824;SDS011;35714;55.708;37.478;2023-04-06T08:51:07;5.32;;;1.45;;
49824;SDS011;35714;55.708;37.478;2023-04-06T08:53:36;6.40;;;1.40;;
49824;SDS011;35714;55.708;37.478;2023-04-06T08:56:02;8.45;;;2.05;;
49824;SDS011;35714;55.708;37.478;2023-04-06T08:58:31;3.92;;;1.73;;
49824;SDS011;35714;55.708;37.478;2023-04-06T09:01:00;9.90;;;1.65;;
49824;SDS011;35714;55.708;37.478;2023-04-06T09:03:28;7.95;;;2.00;;
49824;SDS011;35714;55.708;37.478;2023-04-06T09:05:55;6.20;;;1.42;;
49824;SDS011;35714;55.708;37.478;2023-04-06T09:08:21;14.02;;;1.67;;
49824;SDS011;35714;55.708;37.478;2023-04-06T09:10:47;4.85;;;1.90;;
49824;SDS011;35714;55.708;37.478;2023-04-06T09:13:14;5.22;;;1.65;;
49824;SDS011;35714;55.708;37.478;2023-04-06T09:15:40;5.13;;;1.75;;
49824;SDS011;35714;55.708;37.478;2023-04-06T09:18:05;7.70;;;1.70;;
49824;SDS011;35714;55.708;37.478;2023-04-06T09:20:31;8.50;;;1.70;;
49824;SDS011;35714;55.708;37.478;2023-04-06T09:22:56;7.22;;;1.70;;
49824;SDS011;35714;55.708;37.478;2023-04-06T09:25:22;7.70;;;1.92;;
49824;SDS011;35714;55.708;37.478;2023-04-06T09:27:58;4.00;;;1.65;;
49824;SDS011;35714;55.708;37.478;2023-04-06T09:30:25;3.85;;;1.65;;
49824;SDS011;35714;55.708;37.478;2023-04-06T09:32:52;13.70;;;2.47;;
49824;SDS011;35714;55.708;37.478;2023-04-06T09:35:20;7.18;;;1.85;;
49824;SDS011;35714;55.708;37.478;2023-04-06T09:37:47;6.55;;;1.67;;
49824;SDS011;35714;55.708;37.478;2023-04-06T09:40:15;11.98;;;1.77;;
49824;SDS011;35714;55.708;37.478;2023-04-06T09:42:45;8.02;;;2.10;;
49824;SDS011;35714;55.708;37.478;2023-04-06T09:45:12;5.05;;;1.50;;
49824;SDS011;35714;55.708;37.478;2023-04-06T09:47:39;5.65;;;1.60;;
49824;SDS011;35714;55.708;37.478;2023-04-06T09:50:07;5.50;;;1.77;;
49824;SDS011;35714;55.708;37.478;2023-04-06T09:55:20;8.15;;;1.95;;
49824;SDS011;35714;55.708;37.478;2023-04-06T09:57:55;9.57;;;1.87;;
49824;SDS011;35714;55.708;37.478;2023-04-06T10:00:28;7.95;;;1.70;;
49824;SDS011;35714;55.708;37.478;2023-04-06T10:08:05;6.80;;;1.85;;
49824;SDS011;35714;55.708;37.478;2023-04-06T10:10:34;9.13;;;1.60;;
49824;SDS011;35714;55.708;37.478;2023-04-06T10:12:59;6.97;;;1.88;;
49824;SDS011;35714;55.708;37.478;2023-04-06T10:15:27;8.60;;;1.70;;
49824;SDS011;35714;55.708;37.478;2023-04-06T10:17:54;6.47;;;1.48;;
49824;SDS011;35714;55.708;37.478;2023-04-06T10:20:28;10.85;;;1.88;;
49824;SDS011;35714;55.708;37.478;2023-04-06T10:25:57;9.45;;;2.13;;
49824;SDS011;35714;55.708;37.478;2023-04-06T10:28:25;6.65;;;1.60;;
49824;SDS011;35714;55.708;37.478;2023-04-06T10:30:58;8.07;;;2.25;;
49824;SDS011;35714;55.708;37.478;2023-04-06T10:33:26;6.40;;;1.42;;
49824;SDS011;35714;55.708;37.478;2023-04-06T10:35:52;5.47;;;1.45;;
49824;SDS011;35714;55.708;37.478;2023-04-06T10:38:19;7.72;;;2.17;;
49824;SDS011;35714;55.708;37.478;2023-04-06T10:40:49;6.57;;;1.75;;
49824;SDS011;35714;55.708;37.478;2023-04-06T10:43:19;8.93;;;1.70;;
49824;SDS011;35714;55.708;37.478;2023-04-06T10:45:54;6.57;;;1.80;;
49824;SDS011;35714;55.708;37.478;2023-04-06T10:48:21;6.47;;;1.70;;
49824;SDS011;35714;55.708;37.478;2023-04-06T10:50:50;9.00;;;1.52;;
49824;SDS011;35714;55.708;37.478;2023-04-06T10:53:26;6.85;;;1.48;;
49824;SDS011;35714;55.708;37.478;2023-04-06T10:55:54;9.68;;;1.60;;
49824;SDS011;35714;55.708;37.478;2023-04-06T10:58:24;9.98;;;3.17;;
49824;SDS011;35714;55.708;37.478;2023-04-06T11:00:51;9.38;;;3.55;;
49824;SDS011;35714;55.708;37.478;2023-04-06T11:03:17;5.28;;;1.92;;
49824;SDS011;35714;55.708;37.478;2023-04-06T11:05:46;15.95;;;1.98;;
49824;SDS011;35714;55.708;37.478;2023-04-06T11:08:25;5.53;;;1.40;;
49824;SDS011;35714;55.708;37.478;2023-04-06T11:10:51;10.15;;;1.92;;
49824;SDS011;35714;55.708;37.478;2023-04-06T11:13:17;6.40;;;1.80;;
49824;SDS011;35714;55.708;37.478;2023-04-06T11:15:43;6.55;;;1.75;;
49824;SDS011;35714;55.708;37.478;2023-04-06T11:18:08;6.55;;;1.67;;
49824;SDS011;35714;55.708;37.478;2023-04-06T11:20:36;8.65;;;1.90;;
49824;SDS011;35714;55.708;37.478;2023-04-06T11:23:02;5.88;;;1.75;;
49824;SDS011;35714;55.708;37.478;2023-04-06T11:25:28;11.02;;;1.65;;
49824;SDS011;35714;55.708;37.478;2023-04-06T11:27:56;8.52;;;2.63;;
49824;SDS011;35714;55.708;37.478;2023-04-06T11:30:22;6.72;;;1.77;;
49824;SDS011;35714;55.708;37.478;2023-04-06T11:32:48;9.68;;;1.73;;
49824;SDS011;35714;55.708;37.478;2023-04-06T11:35:21;11.25;;;2.13;;
49824;SDS011;35714;55.708;37.478;2023-04-06T11:37:48;6.53;;;1.88;;
49824;SDS011;35714;55.708;37.478;2023-04-06T11:40:15;7.72;;;1.67;;
49824;SDS011;35714;55.708;37.478;2023-04-06T11:42:51;6.35;;;1.80;;
49824;SDS011;35714;55.708;37.478;2023-04-06T11:45:17;5.25;;;1.70;;
49824;SDS011;35714;55.708;37.478;2023-04-06T11:47:43;5.63;;;1.52;;
49824;SDS011;35714;55.708;37.478;2023-04-06T11:50:12;4.25;;;1.50;;
49824;SDS011;35714;55.708;37.478;2023-04-06T11:52:42;5.93;;;1.50;;
49824;SDS011;35714;55.708;37.478;2023-04-06T11:55:14;8.23;;;1.55;;
49824;SDS011;35714;55.708;37.478;2023-04-06T11:57:41;6.28;;;3.25;;
49824;SDS011;35714;55.708;37.478;2023-04-06T12:00:08;3.63;;;1.45;;
49824;SDS011;35714;55.708;37.478;2023-04-06T12:02:35;6.30;;;1.90;;
49824;SDS011;35714;55.708;37.478;2023-04-06T12:05:02;4.43;;;1.83;;
49824;SDS011;35714;55.708;37.478;2023-04-06T12:07:30;6.05;;;1.75;;
49824;SDS011;35714;55.708;37.478;2023-04-06T12:09:56;5.50;;;1.50;;
49824;SDS011;35714;55.708;37.478;2023-04-06T12:12:21;10.13;;;1.80;;
49824;SDS011;35714;55.708;37.478;2023-04-06T12:14:47;4.68;;;1.35;;
49824;SDS011;35714;55.708;37.478;2023-04-06T12:17:13;12.20;;;1.80;;
49824;SDS011;35714;55.708;37.478;2023-04-06T12:19:38;6.63;;;1.77;;
49824;SDS011;35714;55.708;37.478;2023-04-06T12:22:04;7.40;;;1.40;;
49824;SDS011;35714;55.708;37.478;2023-04-06T12:24:30;7.55;;;1.30;;
49824;SDS011;35714;55.708;37.478;2023-04-06T12:26:56;4.85;;;1.83;;
49824;SDS011;35714;55.708;37.478;2023-04-06T12:29:22;4.80;;;1.38;;
49824;SDS011;35714;55.708;37.478;2023-04-06T12:31:50;5.78;;;1.20;;
49824;SDS011;35714;55.708;37.478;2023-04-06T12:34:16;8.38;;;1.90;;
49824;SDS011;35714;55.708;37.478;2023-04-06T12:36:42;4.32;;;1.50;;
49824;SDS011;35714;55.708;37.478;2023-04-06T12:39:07;4.60;;;1.52;;
49824;SDS011;35714;55.708;37.478;2023-04-06T12:41:33;8.07;;;1.90;;
49824;SDS011;35714;55.708;37.478;2023-04-06T12:43:59;6.30;;;1.88;;
49824;SDS011;35714;55.708;37.478;2023-04-06T12:46:25;4.68;;;1.92;;
49824;SDS011;35714;55.708;37.478;2023-04-06T12:48:51;18.35;;;2.00;;
49824;SDS011;35714;55.708;37.478;2023-04-06T12:51:21;5.10;;;1.73;;
49824;SDS011;35714;55.708;37.478;2023-04-06T12:53:48;4.20;;;1.52;;
49824;SDS011;35714;55.708;37.478;2023-04-06T12:56:15;4.47;;;1.55;;
49824;SDS011;35714;55.708;37.478;2023-04-06T12:58:46;5.70;;;1.90;;
49824;SDS011;35714;55.708;37.478;2023-04-06T13:01:12;7.38;;;1.92;;
49824;SDS011;35714;55.708;37.478;2023-04-06T13:03:39;7.07;;;1.92;;
49824;SDS011;35714;55.708;37.478;2023-04-06T13:06:05;4.50;;;1.55;;
49824;SDS011;35714;55.708;37.478;2023-04-06T13:08:31;7.65;;;1.45;;
49824;SDS011;35714;55.708;37.478;2023-04-06T13:10:56;9.55;;;1.80;;
49824;SDS011;35714;55.708;37.478;2023-04-06T13:13:23;4.22;;;1.50;;
49824;SDS011;35714;55.708;37.478;2023-04-06T13:15:51;9.70;;;1.80;;
49824;SDS011;35714;55.708;37.478;2023-04-06T13:18:17;7.25;;;1.92;;
49824;SDS011;35714;55.708;37.478;2023-04-06T13:20:43;7.82;;;2.22;;
49824;SDS011;35714;55.708;37.478;2023-04-06T13:23:09;8.77;;;2.05;;
49824;SDS011;35714;55.708;37.478;2023-04-06T13:25:35;4.25;;;1.33;;
49824;SDS011;35714;55.708;37.478;2023-04-06T13:28:02;5.22;;;1.73;;
49824;SDS011;35714;55.708;37.478;2023-04-06T13:30:28;6.70;;;1.50;;
49824;SDS011;35714;55.708;37.478;2023-04-06T13:32:53;8.32;;;1.45;;
49824;SDS011;35714;55.708;37.478;2023-04-06T13:35:19;4.88;;;1.45;;
49824;SDS011;35714;55.708;37.478;2023-04-06T13:37:45;3.55;;;1.13;;
49824;SDS011;35714;55.708;37.478;2023-04-06T13:40:11;6.22;;;1.15;;
49824;SDS011;35714;55.708;37.478;2023-04-06T13:42:38;6.03;;;1.20;;
49824;SDS011;35714;55.708;37.478;2023-04-06T13:45:06;5.88;;;1.40;;
49824;SDS011;35714;55.708;37.478;2023-04-06T13:47:32;9.85;;;1.42;;
49824;SDS011;35714;55.708;37.478;2023-04-06T13:49:58;6.85;;;1.30;;
49824;SDS011;35714;55.708;37.478;2023-04-06T13:52:23;6.00;;;1.17;;
49824;SDS011;35714;55.708;37.478;2023-04-06T13:54:49;4.65;;;1.20;;
49824;SDS011;35714;55.708;37.478;2023-04-06T13:57:15;2.90;;;1.17;;
49824;SDS011;35714;55.708;37.478;2023-04-06T13:59:41;5.05;;;1.10;;
49824;SDS011;35714;55.708;37.478;2023-04-06T14:02:08;4.10;;;1.60;;
49824;SDS011;35714;55.708;37.478;2023-04-06T14:04:35;6.68;;;1.38;;
49824;SDS011;35714;55.708;37.478;2023-04-06T14:07:01;2.85;;;1.20;;
49824;SDS011;35714;55.708;37.478;2023-04-06T14:09:28;4.68;;;1.20;;
49824;SDS011;35714;55.708;37.478;2023-04-06T14:11:55;5.88;;;1.20;;
49824;SDS011;35714;55.708;37.478;2023-04-06T14:14:22;5.78;;;1.40;;
49824;SDS011;35714;55.708;37.478;2023-04-06T14:16:49;3.67;;;1.17;;
49824;SDS011;35714;55.708;37.478;2023-04-06T14:19:15;3.15;;;1.00;;
49824;SDS011;35714;55.708;37.478;2023-04-06T14:21:46;4.65;;;1.20;;
49824;SDS011;35714;55.708;37.478;2023-04-06T14:24:13;3.80;;;1.42;;
49824;SDS011;35714;55.708;37.478;2023-04-06T14:26:40;4.45;;;1.00;;
49824;SDS011;35714;55.708;37.478;2023-04-06T14:29:09;3.05;;;1.17;;
49824;SDS011;35714;55.708;37.478;2023-04-06T14:31:35;11.60;;;1.75;;
49824;SDS011;35714;55.708;37.478;2023-04-06T14:34:01;3.03;;;0.90;;
49824;SDS011;35714;55.708;37.478;2023-04-06T14:36:28;4.72;;;1.00;;
49824;SDS011;35714;55.708;37.478;2023-04-06T14:39:05;5.80;;;1.27;;
49824;SDS011;35714;55.708;37.478;2023-04-06T14:41:31;4.10;;;0.88;;
49824;SDS011;35714;55.708;37.478;2023-04-06T14:43:58;6.13;;;1.08;;
49824;SDS011;35714;55.708;37.478;2023-04-06T14:46:23;4.63;;;0.85;;
49824;SDS011;35714;55.708;37.478;2023-04-06T14:48:49;7.03;;;1.67;;
49824;SDS011;35714;55.708;37.478;2023-04-06T14:51:16;4.90;;;0.95;;